Terminal Aerodrome Forecast
Issued by NWS

Home | Current Version | Previous Version | Text Only | Print | Product List | Glossary On
Versions: 1 2 3 4 5 6 7 8 9 10 11 12 13 14 15 16
029
FTUS43 KMQT 081906 AAA
TAFCMX
TAF AMD
KCMX 081906Z 0819/0918 33014G23KT 3SM -SHSN BKN025
      TEMPO 0819/0821 2SM -SHSN BKN020
     FM082100 34015G25KT 1 1/2SM -SHSN BLSN OVC025
     FM090800 34015G25KT 1 1/2SM -SHSN BLSN OVC015
     FM090900 34014KT 2SM -SHSN OVC015=

USA.gov is the U.S. government's official web portal to all federal, state and local government web resources and services.